Time;durP1;ratioP1;P1;durP2;ratioP2;P2;SDS_P1;SDS_P2;PMS_P1;PMS_P2;Temp;Humidity;BMP_temperature;BMP_pressure;BME280_temperature;BME280_humidity;BME280_pressure;Samples;Min_cycle;Max_cycle;Signal;HPM_P1;HPM_P2
2022/06/12 00:01:22;;;;;;;;;;;;;;;27.85;37.24;99423.56;4499465;31;34056;-85
2022/06/12 00:03:49;;;;;;;;;;;;;;;28.03;36.85;99419.00;4499377;31;35003;-85
2022/06/12 00:06:17;;;;;;;;;;;;;;;28.22;36.49;99416.19;4508171;31;34247;-85
2022/06/12 00:08:45;;;;;;;;;;;;;;;27.56;38.00;99414.41;4509812;31;34416;-82
2022/06/12 00:11:19;;;;;;;;;;;;;;;27.23;38.35;99419.69;4509648;31;34158;-83
2022/06/12 00:13:51;;;;;;;;;;;;;;;27.63;37.38;99422.00;4513833;31;33986;-85
2022/06/12 00:16:19;;;;;;;;;;;;;;;27.71;37.19;99415.41;4515008;31;34924;-85
2022/06/12 00:18:46;;;;;;;;;;;;;;;28.04;36.64;99418.94;4513744;31;34879;-87
2022/06/12 00:21:15;;;;;;;;;;;;;;;28.15;35.92;99415.69;4487708;31;33569;-85
2022/06/12 00:23:48;;;;;;;;;;;;;;;28.24;35.89;99419.63;4482217;32;33652;-85
2022/06/12 00:26:20;;;;;;;;;;;;;;;27.82;36.66;99405.91;4482335;32;33970;-85
2022/06/12 00:28:47;;;;;;;;;;;;;;;27.81;36.15;99400.69;4481986;32;34244;-84
2022/06/12 00:31:14;;;;;;;;;;;;;;;27.59;36.42;99400.94;4508871;31;33269;-85
2022/06/12 00:33:42;;;;;;;;;;;;;;;27.58;36.58;99402.75;4515000;31;34410;-84
2022/06/12 00:36:09;;;;;;;;;;;;;;;27.93;35.99;99399.16;4514958;31;35515;-85
2022/06/12 00:38:39;;;;;;;;;;;;;;;28.00;35.85;99398.72;4515082;31;34214;-84
2022/06/12 00:41:06;;;;;;;;;;;;;;;27.92;35.62;99402.75;4503430;31;34295;-84
2022/06/12 00:43:34;;;;;;;;;;;;;;;27.83;35.82;99404.13;4497317;31;34937;-84
2022/06/12 00:46:01;;;;;;;;;;;;;;;27.52;36.05;99395.06;4499043;31;34492;-84
2022/06/12 00:48:33;;;;;;;;;;;;;;;28.01;35.24;99402.25;4497485;31;34693;-85
2022/06/12 00:51:01;;;;;;;;;;;;;;;27.85;35.09;99394.25;4490869;31;34189;-84
2022/06/12 00:53:31;;;;;;;;;;;;;;;27.69;35.20;99393.31;4502496;31;33772;-84
2022/06/12 00:56:00;;;;;;;;;;;;;;;27.56;35.45;99388.66;4513418;31;34158;-85
2022/06/12 00:58:29;;;;;;;;;;;;;;;27.58;35.40;99397.44;4513263;31;34980;-85
2022/06/12 01:00:56;;;;;;;;;;;;;;;26.63;37.14;99398.72;4508832;31;33439;-85
2022/06/12 01:03:25;;;;;;;;;;;;;;;26.87;35.76;99396.66;4498880;31;34017;-85
2022/06/12 01:08:38;;;;;;;;;;;;;;;27.20;34.62;99382.59;4497460;31;35059;-85
2022/06/12 01:11:07;;;;;;;;;;;;;;;27.08;35.40;99390.22;4490714;31;33417;-85
2022/06/12 01:13:36;;;;;;;;;;;;;;;27.12;35.57;99388.31;4501359;31;35062;-86
2022/06/12 01:16:05;;;;;;;;;;;;;;;26.90;34.23;99377.91;4513276;31;35251;-85
2022/06/12 01:18:34;;;;;;;;;;;;;;;26.78;34.56;99381.16;4513889;31;34132;-86
2022/06/12 01:21:16;;;;;;;;;;;;;;;27.07;35.92;99388.53;4503463;31;32872;-85
2022/06/12 01:23:50;;;;;;;;;;;;;;;26.86;36.16;99379.84;4484597;32;34359;-85
2022/06/12 01:26:40;;;;;;;;;;;;;;;27.44;35.52;99380.47;4483301;32;33808;-85
2022/06/12 01:29:11;;;;;;;;;;;;;;;27.38;34.72;99379.81;4474870;31;34609;-85
2022/06/12 01:31:41;;;;;;;;;;;;;;;27.52;33.97;99376.44;4499377;31;33562;-85
2022/06/12 01:34:15;;;;;;;;;;;;;;;27.41;34.82;99378.81;4498846;31;35046;-86
2022/06/12 01:36:53;;;;;;;;;;;;;;;27.54;34.76;99382.56;4500626;31;34058;-85
2022/06/12 01:39:26;;;;;;;;;;;;;;;27.29;33.86;99380.31;4515227;31;33401;-85
2022/06/12 01:42:01;;;;;;;;;;;;;;;27.30;34.24;99376.72;4514845;31;32917;-85
2022/06/12 01:44:40;;;;;;;;;;;;;;;27.35;33.97;99381.78;4516234;31;33870;-85
2022/06/12 01:47:15;;;;;;;;;;;;;;;27.00;34.31;99378.28;4512193;31;34409;-85
2022/06/12 01:50:01;;;;;;;;;;;;;;;27.09;34.97;99376.00;4498685;31;34117;-85
2022/06/12 01:52:47;;;;;;;;;;;;;;;27.19;34.52;99378.22;4499979;31;32950;-85
2022/06/12 01:55:16;;;;;;;;;;;;;;;27.40;33.59;99369.09;4509655;31;34014;-85
2022/06/12 01:57:43;;;;;;;;;;;;;;;27.40;33.68;99371.78;4497490;31;34611;-85
2022/06/12 02:00:21;;;;;;;;;;;;;;;27.41;33.63;99371.69;4516765;31;34268;-85
2022/06/12 02:02:49;;;;;;;;;;;;;;;27.12;34.75;99381.22;4502212;31;34487;-85
2022/06/12 02:05:17;;;;;;;;;;;;;;;27.49;34.65;99379.25;4483123;32;35069;-86
2022/06/12 02:07:47;;;;;;;;;;;;;;;27.67;34.83;99373.91;4484440;32;34406;-85
2022/06/12 02:10:17;;;;;;;;;;;;;;;26.91;35.35;99371.62;4482841;32;33455;-85
2022/06/12 02:15:35;;;;;;;;;;;;;;;27.28;35.49;99372.44;4514789;31;34509;-85
2022/06/12 02:18:05;;;;;;;;;;;;;;;27.40;34.96;99369.09;4515794;31;34499;-84
2022/06/12 02:20:35;;;;;;;;;;;;;;;27.65;34.89;99369.53;4515813;31;33604;-84
2022/06/12 02:23:04;;;;;;;;;;;;;;;27.83;34.63;99369.47;4512672;31;33555;-85
2022/06/12 02:25:33;;;;;;;;;;;;;;;27.85;34.63;99373.78;4514680;31;34486;-85
2022/06/12 02:28:01;;;;;;;;;;;;;;;27.76;34.75;99365.44;4515837;31;34401;-84
2022/06/12 02:30:35;;;;;;;;;;;;;;;27.64;34.44;99374.91;4515134;31;34044;-84
2022/06/12 02:33:04;;;;;;;;;;;;;;;27.65;34.53;99372.19;4506936;31;33848;-84
2022/06/12 02:35:33;;;;;;;;;;;;;;;27.29;34.91;99371.47;4514259;31;34071;-84
2022/06/12 02:38:02;;;;;;;;;;;;;;;27.64;34.38;99377.56;4514518;31;34040;-83
2022/06/12 02:40:34;;;;;;;;;;;;;;;27.54;34.51;99379.00;4516161;31;34098;-84
2022/06/12 02:43:05;;;;;;;;;;;;;;;27.35;34.83;99373.78;4500535;31;33975;-84
2022/06/12 02:45:33;;;;;;;;;;;;;;;27.48;34.62;99380.22;4482943;32;33795;-84
2022/06/12 02:48:00;;;;;;;;;;;;;;;27.56;34.87;99380.66;4483890;32;35095;-84
2022/06/12 02:50:30;;;;;;;;;;;;;;;27.45;34.92;99368.84;4483906;32;34477;-84
2022/06/12 02:53:16;;;;;;;;;;;;;;;27.57;34.88;99377.03;4496851;31;33608;-85
2022/06/12 02:55:45;;;;;;;;;;;;;;;27.50;34.75;99378.31;4515828;31;33920;-84
2022/06/12 02:58:25;;;;;;;;;;;;;;;27.54;34.96;99385.22;4515816;31;34872;-84
2022/06/12 03:00:59;;;;;;;;;;;;;;;27.16;35.14;99380.12;4516088;31;34389;-84
2022/06/12 03:03:29;;;;;;;;;;;;;;;27.30;34.59;99379.38;4506369;31;33532;-84
2022/06/12 03:05:58;;;;;;;;;;;;;;;26.91;34.76;99380.47;4498646;31;35146;-84
2022/06/12 03:08:30;;;;;;;;;;;;;;;26.78;35.08;99381.16;4499782;31;33800;-85
2022/06/12 03:11:00;;;;;;;;;;;;;;;26.36;34.75;99387.62;4498591;31;34287;-84
2022/06/12 03:13:28;;;;;;;;;;;;;;;27.05;34.88;99389.53;4489037;31;33273;-85
2022/06/12 03:15:57;;;;;;;;;;;;;;;26.96;34.69;99382.88;4483774;32;35158;-84
2022/06/12 03:18:26;;;;;;;;;;;;;;;26.97;34.52;99389.06;4483733;32;34504;-84
2022/06/12 03:21:00;;;;;;;;;;;;;;;26.88;34.73;99393.91;4506589;31;35553;-85
2022/06/12 03:23:34;;;;;;;;;;;;;;;26.34;34.94;99390.38;4515527;31;33157;-85
2022/06/12 03:26:01;;;;;;;;;;;;;;;26.76;34.19;99391.87;4514001;31;34141;-84
2022/06/12 03:28:47;;;;;;;;;;;;;;;27.19;34.45;99394.19;4515380;31;34876;-84
2022/06/12 03:31:17;;;;;;;;;;;;;;;26.79;34.65;99394.41;4501162;31;35051;-84
2022/06/12 03:33:45;;;;;;;;;;;;;;;26.75;34.26;99391.97;4498303;31;34309;-84
2022/06/12 03:36:51;;;;;;;;;;;;;;;27.17;34.98;99388.94;4499520;31;34591;-84
2022/06/12 03:39:22;;;;;;;;;;;;;;;27.10;35.18;99404.34;4437666;32;33995;-84
2022/06/12 03:42:11;;;;;;;;;;;;;;;26.28;36.04;99403.94;4436502;32;33667;-85
2022/06/12 03:44:38;;;;;;;;;;;;;;;26.09;35.12;99398.63;4493221;31;34283;-85
2022/06/12 03:47:29;;;;;;;;;;;;;;;26.81;35.29;99396.97;4515385;31;34861;-85
2022/06/12 03:49:56;;;;;;;;;;;;;;;26.95;34.40;99399.78;4499738;31;34409;-83
2022/06/12 03:52:29;;;;;;;;;;;;;;;27.63;34.02;99398.03;4499164;31;33739;-84
2022/06/12 03:54:59;;;;;;;;;;;;;;;28.26;33.66;99401.72;4499269;31;33127;-85
2022/06/12 03:57:51;;;;;;;;;;;;;;;28.00;33.95;99406.72;4498178;31;33529;-84
2022/06/12 04:00:22;;;;;;;;;;;;;;;28.56;33.44;99404.50;4488013;31;34577;-84
2022/06/12 04:02:51;;;;;;;;;;;;;;;28.48;33.50;99402.28;4489846;31;33821;-85
2022/06/12 04:05:20;;;;;;;;;;;;;;;28.64;32.83;99404.06;4497967;31;33601;-84
2022/06/12 04:07:48;;;;;;;;;;;;;;;28.63;33.06;99405.87;4499214;31;34209;-85
2022/06/12 04:10:17;;;;;;;;;;;;;;;29.19;32.07;99401.69;4488322;31;35092;-84
2022/06/12 04:12:44;;;;;;;;;;;;;;;29.13;32.48;99398.53;4482300;32;34258;-85
2022/06/12 04:15:19;;;;;;;;;;;;;;;29.53;31.92;99402.31;4482479;32;33242;-85
2022/06/12 04:17:47;;;;;;;;;;;;;;;29.88;30.27;99408.16;4482067;32;34320;-84
2022/06/12 04:20:19;;;;;;;;;;;;;;;29.81;30.15;99402.38;4483820;31;32753;-85
2022/06/12 04:22:49;;;;;;;;;;;;;;;28.59;32.64;99405.19;4482190;31;34716;-85
2022/06/12 04:25:26;;;;;;;;;;;;;;;29.56;29.89;99407.47;4482274;32;33499;-85
2022/06/12 04:27:54;;;;;;;;;;;;;;;30.59;28.92;99403.66;4481906;32;34217;-86
2022/06/12 04:30:22;;;;;;;;;;;;;;;30.41;29.93;99406.56;4500352;31;34149;-85
2022/06/12 04:32:50;;;;;;;;;;;;;;;28.98;30.90;99400.31;4513386;31;34191;-85
2022/06/12 04:35:17;;;;;;;;;;;;;;;29.54;30.50;99404.88;4513912;31;34291;-84
2022/06/12 04:37:44;;;;;;;;;;;;;;;30.54;29.94;99406.66;4515060;31;35115;-84
2022/06/12 04:40:15;;;;;;;;;;;;;;;29.40;30.67;99412.91;4499804;31;34345;-84
2022/06/12 04:42:43;;;;;;;;;;;;;;;29.61;31.62;99410.75;4497473;31;33854;-85
2022/06/12 04:45:10;;;;;;;;;;;;;;;29.83;30.42;99409.44;4499019;31;34377;-85
2022/06/12 04:47:38;;;;;;;;;;;;;;;28.94;31.43;99406.75;4499112;31;33416;-85
2022/06/12 04:50:05;;;;;;;;;;;;;;;29.72;31.05;99416.28;4483857;31;34606;-85
2022/06/12 04:52:33;;;;;;;;;;;;;;;30.27;30.21;99420.88;4482511;32;35108;-85
2022/06/12 04:55:00;;;;;;;;;;;;;;;30.57;29.53;99414.44;4483457;32;33728;-85
2022/06/12 04:57:27;;;;;;;;;;;;;;;30.37;29.70;99422.94;4482626;32;34849;-85
2022/06/12 04:59:55;;;;;;;;;;;;;;;29.80;30.70;99411.31;4495330;31;34291;-85
2022/06/12 05:02:23;;;;;;;;;;;;;;;29.61;30.33;99415.25;4498775;31;34332;-84
2022/06/12 05:04:51;;;;;;;;;;;;;;;30.14;29.87;99408.34;4497283;31;33973;-85
2022/06/12 05:07:19;;;;;;;;;;;;;;;30.43;29.53;99410.03;4497490;31;34780;-85
2022/06/12 05:09:46;;;;;;;;;;;;;;;30.11;30.20;99421.91;4508997;31;34081;-85
2022/06/12 05:12:13;;;;;;;;;;;;;;;30.14;30.56;99413.69;4512301;31;34236;-85
2022/06/12 05:14:42;;;;;;;;;;;;;;;29.33;31.05;99417.75;4513398;31;33442;-85
2022/06/12 05:17:16;;;;;;;;;;;;;;;29.63;31.22;99413.34;4514522;31;33644;-84
2022/06/12 05:19:44;;;;;;;;;;;;;;;30.18;30.43;99409.88;4504040;31;34047;-84
2022/06/12 05:22:11;;;;;;;;;;;;;;;30.61;30.31;99420.47;4498716;31;34501;-84
2022/06/12 05:24:39;;;;;;;;;;;;;;;30.02;30.26;99421.53;4498526;31;34419;-84
2022/06/12 05:27:07;;;;;;;;;;;;;;;29.64;31.26;99415.06;4498231;31;34349;-84
2022/06/12 05:29:35;;;;;;;;;;;;;;;29.39;31.57;99421.00;4488955;31;35210;-84
2022/06/12 05:32:03;;;;;;;;;;;;;;;30.10;30.55;99428.22;4482289;32;33954;-85
2022/06/12 05:34:33;;;;;;;;;;;;;;;30.14;30.31;99440.41;4482548;32;33621;-84
2022/06/12 05:37:01;;;;;;;;;;;;;;;30.05;30.56;99434.72;4482485;32;34257;-83
2022/06/12 05:39:28;;;;;;;;;;;;;;;29.91;30.74;99434.72;4484910;31;35366;-84
2022/06/12 05:41:55;;;;;;;;;;;;;;;29.48;31.65;99434.66;4498068;31;33324;-85
2022/06/12 05:44:23;;;;;;;;;;;;;;;29.01;32.86;99446.34;4498130;31;33974;-85
2022/06/12 05:46:56;;;;;;;;;;;;;;;29.93;30.46;99440.84;4496676;31;34950;-83
2022/06/12 05:49:24;;;;;;;;;;;;;;;30.13;30.58;99436.03;4500456;31;35271;-84
2022/06/12 05:51:51;;;;;;;;;;;;;;;28.98;31.40;99443.91;4512610;31;33828;-84
2022/06/12 05:54:19;;;;;;;;;;;;;;;28.56;32.84;99449.84;4513379;31;32832;-83
2022/06/12 05:56:46;;;;;;;;;;;;;;;29.43;31.66;99439.41;4513960;31;34028;-84
2022/06/12 05:59:13;;;;;;;;;;;;;;;29.59;31.34;99455.44;4484585;31;35212;-84
2022/06/12 06:01:41;;;;;;;;;;;;;;;30.17;30.47;99450.97;4482115;32;34091;-84
2022/06/12 06:04:08;;;;;;;;;;;;;;;29.95;30.26;99446.94;4493317;31;34450;-83
2022/06/12 06:06:42;;;;;;;;;;;;;;;30.50;29.70;99443.44;4500256;31;34043;-84
2022/06/12 06:09:09;;;;;;;;;;;;;;;30.64;29.59;99457.72;4485053;31;34214;-85
2022/06/12 06:11:36;;;;;;;;;;;;;;;30.10;31.12;99455.81;4483323;32;34898;-83
2022/06/12 06:14:03;;;;;;;;;;;;;;;29.84;30.19;99457.44;4484288;32;33106;-84
2022/06/12 06:16:33;;;;;;;;;;;;;;;29.72;30.62;99453.69;4484478;32;34654;-84
2022/06/12 06:19:00;;;;;;;;;;;;;;;29.03;31.80;99465.81;4496831;31;34088;-82
2022/06/12 06:21:28;;;;;;;;;;;;;;;28.91;31.95;99468.34;4482989;31;33019;-83
2022/06/12 06:23:55;;;;;;;;;;;;;;;28.91;32.48;99466.53;4483829;32;33539;-84
2022/06/12 06:26:23;;;;;;;;;;;;;;;29.56;31.09;99458.25;4496735;31;34058;-82
2022/06/12 06:28:51;;;;;;;;;;;;;;;29.66;31.09;99462.09;4485824;31;35461;-83
2022/06/12 06:31:18;;;;;;;;;;;;;;;29.92;30.32;99452.47;4483817;32;33721;-85
2022/06/12 06:33:46;;;;;;;;;;;;;;;28.65;31.34;99462.69;4484274;32;32825;-85
2022/06/12 06:36:15;;;;;;;;;;;;;;;29.52;30.52;99452.22;4499438;31;34305;-84
2022/06/12 06:38:43;;;;;;;;;;;;;;;29.30;30.51;99459.81;4515527;31;34716;-83
2022/06/12 06:41:10;;;;;;;;;;;;;;;29.32;31.06;99457.88;4514147;31;33734;-82
2022/06/12 06:46:24;;;;;;;;;;;;;;;28.50;32.22;99464.41;4499805;31;34159;-85
2022/06/12 06:48:51;;;;;;;;;;;;;;;29.35;31.74;99465.72;4499745;31;35164;-84
2022/06/12 06:51:18;;;;;;;;;;;;;;;29.70;30.40;99460.09;4499418;31;34334;-83
2022/06/12 06:53:45;;;;;;;;;;;;;;;29.87;30.91;99459.06;4498509;31;33536;-83
2022/06/12 06:56:13;;;;;;;;;;;;;;;30.42;29.25;99453.78;4499771;31;33878;-82
2022/06/12 06:58:40;;;;;;;;;;;;;;;29.91;30.57;99456.09;4498226;31;34901;-84
2022/06/12 07:01:07;;;;;;;;;;;;;;;29.70;31.12;99462.75;4499597;31;35183;-84
2022/06/12 07:03:41;;;;;;;;;;;;;;;29.91;30.65;99455.25;4502181;31;33620;-82
2022/06/12 07:06:10;;;;;;;;;;;;;;;29.57;30.22;99460.84;4499564;31;33875;-83
2022/06/12 07:08:37;;;;;;;;;;;;;;;30.72;30.20;99458.06;4512781;31;35211;-83
2022/06/12 07:11:04;;;;;;;;;;;;;;;30.44;29.86;99456.34;4514133;31;34939;-83
2022/06/12 07:13:32;;;;;;;;;;;;;;;29.66;29.68;99461.22;4515607;31;33243;-83
2022/06/12 07:15:59;;;;;;;;;;;;;;;29.65;30.82;99463.03;4515073;31;35145;-84
2022/06/12 07:18:26;;;;;;;;;;;;;;;29.55;30.76;99465.41;4502822;31;34482;-82
2022/06/12 07:20:54;;;;;;;;;;;;;;;29.55;31.00;99461.88;4499730;31;35137;-84
2022/06/12 07:23:22;;;;;;;;;;;;;;;29.39;30.99;99467.25;4498261;31;32915;-83
2022/06/12 07:25:51;;;;;;;;;;;;;;;29.81;31.94;99454.94;4501955;31;33902;-83
2022/06/12 07:28:19;;;;;;;;;;;;;;;30.02;30.52;99447.41;4497065;31;34182;-84
2022/06/12 07:30:46;;;;;;;;;;;;;;;29.60;31.34;99456.28;4499403;31;34193;-83
2022/06/12 07:33:13;;;;;;;;;;;;;;;28.91;32.26;99452.31;4482429;31;34128;-85
2022/06/12 07:35:42;;;;;;;;;;;;;;;29.11;31.91;99443.16;4483557;32;34013;-84
2022/06/12 07:38:10;;;;;;;;;;;;;;;28.89;32.52;99452.37;4485217;31;34392;-83
2022/06/12 07:40:39;;;;;;;;;;;;;;;28.34;33.50;99450.19;4481698;31;33309;-82
2022/06/12 07:43:08;;;;;;;;;;;;;;;30.59;30.58;99446.47;4491067;31;33874;-84
2022/06/12 07:45:36;;;;;;;;;;;;;;;29.62;30.58;99449.00;4496998;31;34144;-84
2022/06/12 07:48:04;;;;;;;;;;;;;;;30.23;29.09;99450.56;4498561;31;34434;-85
2022/06/12 07:50:31;;;;;;;;;;;;;;;30.22;29.90;99447.03;4496935;31;34898;-83
2022/06/12 07:52:58;;;;;;;;;;;;;;;30.33;29.55;99437.47;4509889;31;33714;-83
2022/06/12 07:55:26;;;;;;;;;;;;;;;30.44;29.20;99446.50;4509517;31;35039;-82
2022/06/12 07:57:53;;;;;;;;;;;;;;;30.73;29.87;99449.12;4493342;31;34353;-82
2022/06/12 08:00:21;;;;;;;;;;;;;;;31.04;29.21;99453.31;4489553;31;33846;-84
2022/06/12 08:02:48;;;;;;;;;;;;;;;31.07;30.22;99454.94;4498111;31;33126;-83
2022/06/12 08:05:16;;;;;;;;;;;;;;;32.03;27.60;99445.59;4503991;31;34208;-83
2022/06/12 08:07:43;;;;;;;;;;;;;;;31.21;28.84;99449.47;4499725;31;34499;-84
2022/06/12 08:10:11;;;;;;;;;;;;;;;31.25;29.99;99448.31;4497938;31;33969;-84
2022/06/12 08:12:39;;;;;;;;;;;;;;;30.04;30.97;99435.66;4497658;31;33368;-85
2022/06/12 08:15:08;;;;;;;;;;;;;;;29.75;30.87;99441.97;4498072;31;34073;-84
2022/06/12 08:17:36;;;;;;;;;;;;;;;29.64;31.99;99447.97;4496541;31;34491;-83
2022/06/12 08:22:49;;;;;;;;;;;;;;;28.77;32.86;99439.75;4494861;31;34156;-83
2022/06/12 08:25:16;;;;;;;;;;;;;;;29.07;32.84;99443.34;4507377;31;34222;-85
2022/06/12 08:27:43;;;;;;;;;;;;;;;29.99;30.77;99437.75;4497275;31;35318;-87
2022/06/12 08:30:11;;;;;;;;;;;;;;;29.49;32.52;99441.72;4502404;31;34735;-82
2022/06/12 08:32:39;;;;;;;;;;;;;;;29.69;31.25;99428.97;4496625;31;32952;-82
2022/06/12 08:35:10;;;;;;;;;;;;;;;30.37;32.19;99431.81;4490630;31;33978;-84
2022/06/12 08:37:38;;;;;;;;;;;;;;;28.64;34.17;99439.63;4494950;31;34890;-84
2022/06/12 08:40:11;;;;;;;;;;;;;;;29.54;32.97;99441.44;4484217;31;34192;-84
2022/06/12 08:42:44;;;;;;;;;;;;;;;30.16;31.48;99438.53;4480715;32;34252;-83
2022/06/12 08:45:16;;;;;;;;;;;;;;;30.11;32.16;99441.47;4487636;31;34304;-86
2022/06/12 08:48:05;;;;;;;;;;;;;;;30.61;30.02;99447.22;4500664;31;35257;-86
2022/06/12 08:50:36;;;;;;;;;;;;;;;29.79;31.07;99449.69;4479557;32;34326;-85
2022/06/12 08:53:14;;;;;;;;;;;;;;;30.91;29.64;99442.56;4480593;31;32653;-82
2022/06/12 08:55:43;;;;;;;;;;;;;;;30.22;31.17;99443.50;4501952;31;34248;-82
2022/06/12 08:58:30;;;;;;;;;;;;;;;30.21;30.34;99452.47;4509099;31;33910;-83
2022/06/12 09:00:58;;;;;;;;;;;;;;;30.33;30.09;99441.00;4496036;31;34836;-82
2022/06/12 09:03:26;;;;;;;;;;;;;;;30.74;30.46;99440.16;4483468;31;34106;-87
2022/06/12 09:06:03;;;;;;;;;;;;;;;30.78;30.55;99447.00;4483192;31;34206;-83
2022/06/12 09:08:33;;;;;;;;;;;;;;;30.36;31.05;99434.59;4496135;31;34518;-83
2022/06/12 09:11:02;;;;;;;;;;;;;;;30.57;30.47;99437.69;4486186;31;34892;-84
2022/06/12 09:13:34;;;;;;;;;;;;;;;30.82;28.98;99432.47;4486793;31;33636;-86
2022/06/12 09:16:04;;;;;;;;;;;;;;;30.93;30.91;99435.28;4498456;31;34374;-85
2022/06/12 09:18:40;;;;;;;;;;;;;;;29.93;32.22;99432.81;4506692;31;33879;-87
2022/06/12 09:21:11;;;;;;;;;;;;;;;30.26;30.28;99432.50;4512390;31;34604;-87
2022/06/12 09:23:46;;;;;;;;;;;;;;;29.87;31.75;99427.84;4480797;31;32257;-85
2022/06/12 09:26:36;;;;;;;;;;;;;;;30.85;29.70;99432.25;4480919;31;34004;-83
2022/06/12 09:29:09;;;;;;;;;;;;;;;31.17;28.93;99431.91;4496508;31;34921;-84
2022/06/12 09:31:43;;;;;;;;;;;;;;;29.94;31.09;99434.53;4499605;31;33980;-84
2022/06/12 09:34:14;;;;;;;;;;;;;;;30.48;31.92;99428.44;4503141;31;34000;-86
2022/06/12 09:36:46;;;;;;;;;;;;;;;30.60;30.79;99432.13;4496531;31;34820;-85
2022/06/12 09:39:18;;;;;;;;;;;;;;;30.28;31.46;99427.06;4498377;31;33848;-88
2022/06/12 09:41:53;;;;;;;;;;;;;;;31.28;30.20;99432.03;4506701;31;35084;-85
2022/06/12 09:44:35;;;;;;;;;;;;;;;31.07;29.66;99426.34;4506880;31;32803;-86
2022/06/12 09:47:10;;;;;;;;;;;;;;;31.08;29.69;99419.16;4490829;31;34306;-84
2022/06/12 09:50:03;;;;;;;;;;;;;;;30.62;29.56;99422.19;4491604;31;34060;-83
2022/06/12 09:52:52;;;;;;;;;;;;;;;31.64;29.83;99407.22;4498450;31;33798;-84
2022/06/12 09:55:26;;;;;;;;;;;;;;;31.57;28.88;99410.44;4486835;31;33027;-85
2022/06/12 09:57:57;;;;;;;;;;;;;;;30.86;29.41;99415.22;4503615;31;34018;-84
2022/06/12 10:00:26;;;;;;;;;;;;;;;29.41;31.14;99414.63;4494951;31;33883;-82
2022/06/12 10:02:54;;;;;;;;;;;;;;;30.04;31.68;99403.59;4491885;31;34902;-81
2022/06/12 10:05:24;;;;;;;;;;;;;;;29.75;30.83;99407.22;4499901;31;34374;-82
2022/06/12 10:08:18;;;;;;;;;;;;;;;31.43;29.46;99396.16;4511731;31;35175;-81
2022/06/12 10:10:47;;;;;;;;;;;;;;;30.62;31.10;99398.13;4512027;31;34862;-82
2022/06/12 10:13:16;;;;;;;;;;;;;;;31.63;28.08;99391.22;4482416;31;34280;-85
2022/06/12 10:15:59;;;;;;;;;;;;;;;29.68;31.03;99395.22;4481616;31;33519;-83
2022/06/12 10:18:29;;;;;;;;;;;;;;;31.59;28.24;99390.59;4491972;31;34957;-83
2022/06/12 10:20:57;;;;;;;;;;;;;;;31.97;28.74;99393.28;4497819;31;35379;-82
2022/06/12 10:23:24;;;;;;;;;;;;;;;32.13;29.35;99387.66;4493937;31;34072;-80
2022/06/12 10:25:54;;;;;;;;;;;;;;;30.41;29.98;99385.19;4496378;31;34214;-84
2022/06/12 10:28:31;;;;;;;;;;;;;;;31.15;30.34;99389.16;4513496;31;34003;-83
2022/06/12 10:31:01;;;;;;;;;;;;;;;31.84;29.17;99373.63;4508217;31;33964;-86
2022/06/12 10:33:43;;;;;;;;;;;;;;;30.61;30.94;99388.34;4508223;31;33999;-83
2022/06/12 10:36:18;;;;;;;;;;;;;;;31.06;30.70;99380.88;4502515;31;33462;-84
2022/06/12 10:38:45;;;;;;;;;;;;;;;30.77;31.55;99381.91;4515727;31;34232;-85
2022/06/12 10:41:20;;;;;;;;;;;;;;;31.03;29.57;99376.63;4508112;31;35185;-84
2022/06/12 10:43:48;;;;;;;;;;;;;;;32.06;27.66;99372.12;4499344;31;34301;-83
2022/06/12 10:46:20;;;;;;;;;;;;;;;32.19;28.63;99380.97;4502219;31;33170;-82
2022/06/12 10:48:59;;;;;;;;;;;;;;;32.33;27.79;99375.44;4499887;31;34262;-84
2022/06/12 10:51:34;;;;;;;;;;;;;;;31.61;28.37;99377.09;4502046;31;34069;-83
2022/06/12 10:54:08;;;;;;;;;;;;;;;31.39;29.96;99369.72;4513667;31;34250;-83
2022/06/12 10:57:11;;;;;;;;;;;;;;;32.97;26.22;99358.22;4514396;31;33299;-83
2022/06/12 10:59:51;;;;;;;;;;;;;;;32.46;28.68;99372.72;4449569;32;34018;-85
2022/06/12 11:02:36;;;;;;;;;;;;;;;32.06;28.44;99367.59;4507938;31;34071;-83
2022/06/12 11:05:23;;;;;;;;;;;;;;;32.08;28.30;99370.16;4512454;31;34785;-82
2022/06/12 11:07:53;;;;;;;;;;;;;;;32.38;27.77;99367.06;4499736;31;33812;-84
2022/06/12 11:10:44;;;;;;;;;;;;;;;31.96;28.47;99358.50;4498107;31;34800;-83
2022/06/12 11:13:14;;;;;;;;;;;;;;;33.15;26.88;99362.19;4499047;31;35015;-85
2022/06/12 11:16:00;;;;;;;;;;;;;;;32.78;27.84;99359.59;4498112;31;34999;-83
2022/06/12 11:18:43;;;;;;;;;;;;;;;32.05;29.29;99362.34;4483905;32;33435;-84
2022/06/12 11:21:29;;;;;;;;;;;;;;;32.73;27.10;99360.91;4483656;32;35221;-83
2022/06/12 11:23:56;;;;;;;;;;;;;;;32.04;28.64;99363.31;4489137;31;33995;-83
2022/06/12 11:26:40;;;;;;;;;;;;;;;31.96;28.54;99356.69;4499550;31;34104;-83
2022/06/12 11:29:34;;;;;;;;;;;;;;;32.86;28.44;99359.84;4495828;31;33471;-82
2022/06/12 11:32:08;;;;;;;;;;;;;;;31.56;29.07;99352.44;4459624;31;33851;-82
2022/06/12 11:34:44;;;;;;;;;;;;;;;31.85;29.39;99359.28;4482486;32;34226;-84
2022/06/12 11:37:31;;;;;;;;;;;;;;;31.47;29.50;99359.31;4483684;32;34941;-83
2022/06/12 11:40:01;;;;;;;;;;;;;;;32.41;28.93;99354.31;4501758;31;34063;-84
2022/06/12 11:42:38;;;;;;;;;;;;;;;30.17;30.53;99352.03;4496674;31;34277;-82
2022/06/12 11:45:37;;;;;;;;;;;;;;;31.51;29.82;99352.75;4498866;31;34425;-81
2022/06/12 11:48:23;;;;;;;;;;;;;;;32.28;28.81;99347.22;4483282;32;34522;-84
2022/06/12 11:51:10;;;;;;;;;;;;;;;31.49;29.26;99347.53;4469270;32;34059;-83
2022/06/12 11:53:50;;;;;;;;;;;;;;;32.46;29.76;99352.13;4481796;32;34092;-84
2022/06/12 11:56:33;;;;;;;;;;;;;;;31.93;29.80;99346.16;4486587;31;35052;-82
2022/06/12 11:59:00;;;;;;;;;;;;;;;31.62;29.46;99342.12;4498798;31;34569;-82
2022/06/12 12:01:40;;;;;;;;;;;;;;;32.90;27.75;99341.69;4498945;31;34186;-82
2022/06/12 12:04:16;;;;;;;;;;;;;;;33.38;26.85;99337.03;4498914;31;34208;-85
2022/06/12 12:06:54;;;;;;;;;;;;;;;31.96;29.02;99345.94;4499855;31;35167;-85
2022/06/12 12:09:40;;;;;;;;;;;;;;;31.72;28.00;99328.94;4487928;31;33111;-84
2022/06/12 12:12:09;;;;;;;;;;;;;;;32.69;27.26;99323.56;4498815;31;33225;-87
2022/06/12 12:14:41;;;;;;;;;;;;;;;32.84;28.51;99313.44;4497936;31;34718;-83
2022/06/12 12:17:16;;;;;;;;;;;;;;;31.51;29.68;99323.28;4497813;31;35193;-84
2022/06/12 12:19:45;;;;;;;;;;;;;;;32.07;28.87;99328.22;4497940;31;34219;-85
2022/06/12 12:22:16;;;;;;;;;;;;;;;31.83;28.63;99317.44;4497945;31;34162;-83
2022/06/12 12:24:49;;;;;;;;;;;;;;;31.70;27.79;99317.47;4498030;31;33730;-83
2022/06/12 12:27:29;;;;;;;;;;;;;;;32.34;28.66;99317.28;4488718;31;34241;-84
2022/06/12 12:29:56;;;;;;;;;;;;;;;31.13;29.92;99307.19;4483427;32;33922;-84
2022/06/12 12:32:24;;;;;;;;;;;;;;;31.27;29.58;99307.09;4482128;32;33182;-83
2022/06/12 12:34:52;;;;;;;;;;;;;;;31.91;28.46;99301.69;4482635;32;35062;-83
2022/06/12 12:43:21;;;;;;;;;;;;;;;32.40;27.98;99298.06;4514552;31;33934;-83
2022/06/12 12:45:58;;;;;;;;;;;;;;;31.08;29.22;99290.63;4514919;31;34923;-85
2022/06/12 12:48:25;;;;;;;;;;;;;;;32.33;28.98;99294.09;4512901;31;34354;-84
2022/06/12 12:50:54;;;;;;;;;;;;;;;32.42;28.31;99288.06;4511829;31;34005;-84
2022/06/12 12:53:26;;;;;;;;;;;;;;;32.73;27.13;99281.19;4488591;31;34090;-82
2022/06/12 12:56:01;;;;;;;;;;;;;;;32.74;26.32;99287.47;4496877;31;34474;-84
2022/06/12 12:58:29;;;;;;;;;;;;;;;32.74;27.66;99272.19;4498666;31;33990;-85
2022/06/12 13:01:00;;;;;;;;;;;;;;;32.65;28.25;99280.94;4497341;31;34453;-85
2022/06/12 13:03:29;;;;;;;;;;;;;;;33.23;26.63;99279.13;4492543;31;34359;-85
2022/06/12 13:05:57;;;;;;;;;;;;;;;31.16;29.12;99280.22;4494700;31;35063;-84
2022/06/12 13:08:43;;;;;;;;;;;;;;;32.71;27.65;99277.78;4500967;31;34816;-84
2022/06/12 13:11:13;;;;;;;;;;;;;;;33.04;27.87;99266.31;4498170;31;34384;-86
2022/06/12 13:13:46;;;;;;;;;;;;;;;32.10;27.79;99277.06;4497681;31;34047;-84
2022/06/12 13:16:22;;;;;;;;;;;;;;;31.24;28.29;99276.03;4498684;31;34134;-86
2022/06/12 13:19:00;;;;;;;;;;;;;;;32.28;29.71;99275.69;4498405;31;34545;-86
2022/06/12 13:21:30;;;;;;;;;;;;;;;33.02;26.46;99267.38;4497305;31;34722;-85
2022/06/12 13:24:00;;;;;;;;;;;;;;;33.31;26.84;99267.78;4497551;31;33153;-88
2022/06/12 13:26:31;;;;;;;;;;;;;;;32.27;28.09;99273.94;4498303;31;34984;-86
2022/06/12 13:29:01;;;;;;;;;;;;;;;32.84;27.05;99258.91;4498160;31;34917;-87